Aérodrome :
LOGIN :

S'inscrire | Disclaimer

   EN    FR    IT 

 










Légende :    VFR   VFR Marginal   IFR   IFR Intensif   IFR Très Intensif
Visi : 
Plafond : 
>= 8 km
>= 3000ft
5 à 8 km
1000 à 3000 ft
1500m à 5 km
500 à 1000 ft
800 à 1500m
200 à 500 ft
< 800m
< 200 ft
Symboles :   Orages  Brouillard  Fortes neiges  Fortes précipitations  Vent > 20 kt
SIGMETs :   Divers  Orages  Givrage  Turbulence  Onde Orograph.  Cendres Volcan.







- Altitude de l'aérodrome : 2001 ft
- Code IATA : MAD


LEMD - Madrid

DERNIER METAR :
  • 242300Z 20010KT 9999 FEW040CB 18/15 Q1014 TEMPO TSRA FEW030CB

METARs EXPIRÉS :
  • 242230Z 15010KT 9999 FEW040CB 20/12 Q1013 TEMPO TSRA FEW030CB
  • 242200Z 17008KT 9999 FEW040CB 21/13 Q1013 TEMPO TSRA FEW030CB
  • 242130Z 14017KT 110V170 9999 FEW040TCU 22/09 Q1013 TEMPO TSRA FEW030CB
  • 242100Z 16013KT 120V190 9999 FEW040TCU 23/10 Q1013 NOSIG
  • 242030Z 13009KT 110V170 9999 FEW040TCU 22/11 Q1012 NOSIG

TAF TAF LEMD
Valide du 24 à 18h jusqu'au 26 à 00h UTC


241700Z 2418/2524 VRB05KT 9999 SCT045 TX25/2418Z TN13/2524Z
TEMPO 2418/2424 VRB15G28KT SHRA SCT040CB
PROB40
TEMPO 2418/2424 VRB25G35KT 3000 TS SHGR SCT030CB
TEMPO 2500/2516 3000 RA SHRA SCT030TCU
PROB40
TEMPO 2500/2516 VRB28G38KT 2000 TS SHRA SCT030CB
PROB30
TEMPO 2508/2517 18010KT
Pas de NOTAMs connus pour ce terrain.
1 SIGMET publié pour la FIR Madrid (LECM) :
 
Orages noyés dans la masse
LECM SIGMET 14 VALID 242100/242355 LEVA
LECM MADRID FIR/UIR EMBD TS OBS AT 2036Z WI N3844 W00702 - N3843 W00217 - N4303 W00217 - N4302 W00742 - N4132 W00613 - N3844 W00702 TOP FL380 MOV N 15KT NC=



MET'MAP, la Météo Aéronautique d'un coup d'oeil ! - Copyright ORBIFLY Décembre 2007 - Disclaimer

ORBIFLY MET'MAP TEAM :

Programmation & Développement : Alexandra Zaïnal
Conception & Développement : Baudouin d'Aumeries
Co-Programmation & Développement : Marc-Olivier Méhu
Soutien technique & logistique : Manuel Goepfert

Contact : metmap@orbifly.com




SOURCES & CREDITS :

   NOAA